sensor_id;sensor_type;location;lat;lon;timestamp;temperature;humidity
1005;DHT22;491;53.480;10.174;2023-11-19T00:02:15;6.50;99.90
1005;DHT22;491;53.480;10.174;2023-11-19T00:04:41;6.50;99.90
1005;DHT22;491;53.480;10.174;2023-11-19T00:07:06;6.40;99.90
1005;DHT22;491;53.480;10.174;2023-11-19T00:09:36;6.40;99.90
1005;DHT22;491;53.480;10.174;2023-11-19T00:12:03;6.40;99.90
1005;DHT22;491;53.480;10.174;2023-11-19T00:14:29;6.40;99.90
1005;DHT22;491;53.480;10.174;2023-11-19T00:16:55;6.40;99.90
1005;DHT22;491;53.480;10.174;2023-11-19T00:19:20;6.50;99.90
1005;DHT22;491;53.480;10.174;2023-11-19T00:21:46;6.60;99.90
1005;DHT22;491;53.480;10.174;2023-11-19T00:24:12;6.60;99.90
1005;DHT22;491;53.480;10.174;2023-11-19T00:26:38;6.60;99.90
1005;DHT22;491;53.480;10.174;2023-11-19T00:29:04;6.60;99.90
1005;DHT22;491;53.480;10.174;2023-11-19T00:31:29;6.60;99.90
1005;DHT22;491;53.480;10.174;2023-11-19T00:33:55;6.40;99.90
1005;DHT22;491;53.480;10.174;2023-11-19T00:36:20;6.70;99.90
1005;DHT22;491;53.480;10.174;2023-11-19T00:38:46;6.70;99.90
1005;DHT22;491;53.480;10.174;2023-11-19T00:41:11;6.60;99.90
1005;DHT22;491;53.480;10.174;2023-11-19T00:43:37;6.70;99.90
1005;DHT22;491;53.480;10.174;2023-11-19T00:46:03;6.80;99.90
1005;DHT22;491;53.480;10.174;2023-11-19T00:48:29;6.70;99.90
1005;DHT22;491;53.480;10.174;2023-11-19T00:50:55;6.60;99.90
1005;DHT22;491;53.480;10.174;2023-11-19T00:53:20;6.50;99.90
1005;DHT22;491;53.480;10.174;2023-11-19T00:55:46;6.60;99.90
1005;DHT22;491;53.480;10.174;2023-11-19T00:58:11;6.70;99.90
1005;DHT22;491;53.480;10.174;2023-11-19T01:00:37;6.70;99.90
1005;DHT22;491;53.480;10.174;2023-11-19T01:03:02;6.80;99.90
1005;DHT22;491;53.480;10.174;2023-11-19T01:05:27;6.70;99.90
1005;DHT22;491;53.480;10.174;2023-11-19T01:07:54;6.70;99.90
1005;DHT22;491;53.480;10.174;2023-11-19T01:10:19;6.80;99.90
1005;DHT22;491;53.480;10.174;2023-11-19T01:12:45;6.80;99.90
1005;DHT22;491;53.480;10.174;2023-11-19T01:15:11;6.70;99.90
1005;DHT22;491;53.480;10.174;2023-11-19T01:17:38;6.70;99.90
1005;DHT22;491;53.480;10.174;2023-11-19T01:20:04;6.70;99.90
1005;DHT22;491;53.480;10.174;2023-11-19T01:22:31;6.70;99.90
1005;DHT22;491;53.480;10.174;2023-11-19T01:24:57;6.70;99.90
1005;DHT22;491;53.480;10.174;2023-11-19T01:27:23;6.60;99.90
1005;DHT22;491;53.480;10.174;2023-11-19T01:29:49;6.60;99.90
1005;DHT22;491;53.480;10.174;2023-11-19T01:32:15;6.60;99.90
1005;DHT22;491;53.480;10.174;2023-11-19T01:34:40;6.70;99.90
1005;DHT22;491;53.480;10.174;2023-11-19T01:37:06;6.40;99.90
1005;DHT22;491;53.480;10.174;2023-11-19T01:39:32;6.60;99.90
1005;DHT22;491;53.480;10.174;2023-11-19T01:41:57;6.70;99.90
1005;DHT22;491;53.480;10.174;2023-11-19T01:44:23;6.70;99.90
1005;DHT22;491;53.480;10.174;2023-11-19T01:46:48;6.70;99.90
1005;DHT22;491;53.480;10.174;2023-11-19T01:49:15;6.70;99.90
1005;DHT22;491;53.480;10.174;2023-11-19T01:51:41;6.70;99.90
1005;DHT22;491;53.480;10.174;2023-11-19T01:54:07;6.60;99.90
1005;DHT22;491;53.480;10.174;2023-11-19T01:56:33;6.60;99.90
1005;DHT22;491;53.480;10.174;2023-11-19T01:59:00;6.50;99.90
1005;DHT22;491;53.480;10.174;2023-11-19T02:01:26;6.60;99.90
1005;DHT22;491;53.480;10.174;2023-11-19T02:03:52;6.60;99.90
1005;DHT22;491;53.480;10.174;2023-11-19T02:06:18;6.60;99.90
1005;DHT22;491;53.480;10.174;2023-11-19T02:08:43;6.60;99.90
1005;DHT22;491;53.480;10.174;2023-11-19T02:11:09;6.70;99.90
1005;DHT22;491;53.480;10.174;2023-11-19T02:13:37;6.80;99.90
1005;DHT22;491;53.480;10.174;2023-11-19T02:16:03;6.80;99.90
1005;DHT22;491;53.480;10.174;2023-11-19T02:18:29;6.70;99.90
1005;DHT22;491;53.480;10.174;2023-11-19T02:20:58;6.70;99.90
1005;DHT22;491;53.480;10.174;2023-11-19T02:23:28;6.70;99.90
1005;DHT22;491;53.480;10.174;2023-11-19T02:26:18;6.80;99.90
1005;DHT22;491;53.480;10.174;2023-11-19T02:28:45;6.80;99.90
1005;DHT22;491;53.480;10.174;2023-11-19T02:31:10;6.80;99.90
1005;DHT22;491;53.480;10.174;2023-11-19T02:33:37;6.60;99.90
1005;DHT22;491;53.480;10.174;2023-11-19T02:36:04;6.80;99.90
1005;DHT22;491;53.480;10.174;2023-11-19T02:38:30;6.80;99.90
1005;DHT22;491;53.480;10.174;2023-11-19T02:40:56;6.80;99.90
1005;DHT22;491;53.480;10.174;2023-11-19T02:43:22;6.80;99.90
1005;DHT22;491;53.480;10.174;2023-11-19T02:45:48;6.70;99.90
1005;DHT22;491;53.480;10.174;2023-11-19T02:48:13;6.70;99.90
1005;DHT22;491;53.480;10.174;2023-11-19T02:50:41;6.70;99.90
1005;DHT22;491;53.480;10.174;2023-11-19T02:53:07;6.80;99.90
1005;DHT22;491;53.480;10.174;2023-11-19T02:55:33;7.00;99.90
1005;DHT22;491;53.480;10.174;2023-11-19T02:58:03;6.90;99.90
1005;DHT22;491;53.480;10.174;2023-11-19T03:00:35;6.80;99.90
1005;DHT22;491;53.480;10.174;2023-11-19T03:03:12;6.80;99.90
1005;DHT22;491;53.480;10.174;2023-11-19T03:05:46;6.90;99.90
1005;DHT22;491;53.480;10.174;2023-11-19T03:08:12;6.60;99.90
1005;DHT22;491;53.480;10.174;2023-11-19T03:10:38;6.60;99.90
1005;DHT22;491;53.480;10.174;2023-11-19T03:13:04;7.00;99.90
1005;DHT22;491;53.480;10.174;2023-11-19T03:15:29;7.10;99.90
1005;DHT22;491;53.480;10.174;2023-11-19T03:17:55;7.00;99.90
1005;DHT22;491;53.480;10.174;2023-11-19T03:20:20;6.80;99.90
1005;DHT22;491;53.480;10.174;2023-11-19T03:22:46;6.80;99.90
1005;DHT22;491;53.480;10.174;2023-11-19T03:25:12;7.10;99.90
1005;DHT22;491;53.480;10.174;2023-11-19T03:27:38;7.40;99.90
1005;DHT22;491;53.480;10.174;2023-11-19T03:30:05;7.30;99.90
1005;DHT22;491;53.480;10.174;2023-11-19T03:32:34;7.20;99.90
1005;DHT22;491;53.480;10.174;2023-11-19T03:35:01;7.10;99.90
1005;DHT22;491;53.480;10.174;2023-11-19T03:37:26;7.20;99.90
1005;DHT22;491;53.480;10.174;2023-11-19T03:39:54;7.20;99.90
1005;DHT22;491;53.480;10.174;2023-11-19T03:42:20;7.10;99.90
1005;DHT22;491;53.480;10.174;2023-11-19T03:44:46;7.10;99.90
1005;DHT22;491;53.480;10.174;2023-11-19T03:47:11;7.10;99.90
1005;DHT22;491;53.480;10.174;2023-11-19T03:49:37;7.20;99.90
1005;DHT22;491;53.480;10.174;2023-11-19T03:52:02;7.20;99.90
1005;DHT22;491;53.480;10.174;2023-11-19T03:54:28;7.30;99.90
1005;DHT22;491;53.480;10.174;2023-11-19T03:56:54;7.40;99.90
1005;DHT22;491;53.480;10.174;2023-11-19T03:59:19;7.40;99.90
1005;DHT22;491;53.480;10.174;2023-11-19T04:01:45;7.50;99.90
1005;DHT22;491;53.480;10.174;2023-11-19T04:04:11;7.40;99.90
1005;DHT22;491;53.480;10.174;2023-11-19T04:06:37;7.60;99.90
1005;DHT22;491;53.480;10.174;2023-11-19T04:09:03;7.50;99.90
1005;DHT22;491;53.480;10.174;2023-11-19T04:11:28;7.60;99.90
1005;DHT22;491;53.480;10.174;2023-11-19T04:13:54;7.60;99.90
1005;DHT22;491;53.480;10.174;2023-11-19T04:16:26;7.50;99.90
1005;DHT22;491;53.480;10.174;2023-11-19T04:18:53;7.60;99.90
1005;DHT22;491;53.480;10.174;2023-11-19T04:21:18;7.70;99.90
